createdAt,value
2022-10-06T00:00:40.087Z,0.00
2022-10-06T00:01:40.084Z,0.00
2022-10-06T00:02:40.086Z,0.00
2022-10-06T00:03:40.039Z,0.00
2022-10-06T00:04:40.032Z,0.00
2022-10-06T00:05:40.025Z,0.00
2022-10-06T00:06:40.039Z,0.00
2022-10-06T00:07:40.000Z,0.00
2022-10-06T00:08:40.012Z,0.00
2022-10-06T00:09:39.979Z,0.00
2022-10-06T00:10:39.979Z,0.00
2022-10-06T00:11:39.970Z,0.00
2022-10-06T00:12:39.986Z,0.00
2022-10-06T00:13:39.953Z,0.00
2022-10-06T00:14:39.941Z,0.00
2022-10-06T00:15:39.983Z,0.00
2022-10-06T00:16:39.927Z,0.00
2022-10-06T00:17:39.917Z,0.00
2022-10-06T00:18:39.927Z,0.00
2022-10-06T00:19:39.900Z,0.00
2022-10-06T00:20:39.909Z,0.00
2022-10-06T00:21:39.885Z,0.00
2022-10-06T00:22:39.871Z,0.00
2022-10-06T00:23:39.868Z,0.00
2022-10-06T00:24:39.862Z,0.00
2022-10-06T00:25:39.845Z,0.00
2022-10-06T00:26:39.871Z,0.00
2022-10-06T00:27:39.833Z,0.00
2022-10-06T00:28:39.862Z,0.00
2022-10-06T00:29:39.813Z,0.00
2022-10-06T00:30:39.801Z,0.00
2022-10-06T00:31:39.797Z,0.00
2022-10-06T00:32:39.805Z,0.00
2022-10-06T00:33:39.778Z,0.00
2022-10-06T00:34:39.805Z,0.00
2022-10-06T00:35:39.772Z,0.00
2022-10-06T00:36:39.755Z,0.00
2022-10-06T00:37:39.739Z,0.00
2022-10-06T00:38:39.759Z,0.00
2022-10-06T00:39:39.728Z,0.00
2022-10-06T00:40:39.727Z,0.00
2022-10-06T00:41:39.732Z,0.00
2022-10-06T00:42:39.708Z,0.00
2022-10-06T00:43:39.697Z,0.00
2022-10-06T00:44:39.694Z,0.00
2022-10-06T00:45:39.678Z,0.00
2022-10-06T00:46:39.713Z,0.00
2022-10-06T00:47:39.687Z,0.00
2022-10-06T00:48:39.659Z,0.00
2022-10-06T00:49:39.644Z,0.00
2022-10-06T00:50:39.625Z,0.00
2022-10-06T00:51:39.651Z,0.00
2022-10-06T00:52:39.617Z,0.00
2022-10-06T00:53:39.611Z,0.00
2022-10-06T00:54:39.617Z,0.00
2022-10-06T00:55:39.598Z,0.00
2022-10-06T00:56:39.592Z,0.00
2022-10-06T00:57:39.573Z,0.00
2022-10-06T00:58:39.554Z,0.00
2022-10-06T00:59:39.553Z,0.00
2022-10-06T01:00:39.577Z,0.00
2022-10-06T01:01:39.570Z,0.00
2022-10-06T01:02:39.635Z,0.00
2022-10-06T01:03:39.541Z,0.00
2022-10-06T01:04:39.520Z,0.00
2022-10-06T01:05:39.519Z,0.00
2022-10-06T01:06:39.489Z,0.00
2022-10-06T01:07:39.484Z,0.00
2022-10-06T01:08:39.487Z,0.00
2022-10-06T01:09:39.462Z,0.00
2022-10-06T01:10:39.459Z,0.00
2022-10-06T01:11:39.468Z,0.00
2022-10-06T01:12:39.470Z,0.00
2022-10-06T01:13:39.432Z,0.00
2022-10-06T01:14:39.444Z,0.00
2022-10-06T01:15:39.464Z,0.00
2022-10-06T01:16:39.422Z,0.00
2022-10-06T01:17:39.432Z,0.00
2022-10-06T01:18:39.420Z,0.00
2022-10-06T01:19:39.392Z,0.00
2022-10-06T01:20:39.391Z,0.00
2022-10-06T01:21:39.373Z,0.00
2022-10-06T01:22:39.372Z,0.00
2022-10-06T01:23:39.359Z,0.00
2022-10-06T01:24:39.366Z,0.00
2022-10-06T01:25:39.352Z,0.00
2022-10-06T01:26:39.339Z,0.00
2022-10-06T01:27:39.312Z,0.00
2022-10-06T01:28:39.420Z,0.00
2022-10-06T01:29:39.306Z,0.00
2022-10-06T01:30:39.326Z,0.00
2022-10-06T01:31:39.284Z,0.00
2022-10-06T01:32:39.279Z,0.00
2022-10-06T01:33:39.263Z,0.00
2022-10-06T01:34:39.258Z,0.00
2022-10-06T01:35:39.257Z,0.00
2022-10-06T01:36:39.264Z,0.00
2022-10-06T01:37:39.232Z,0.00
2022-10-06T01:38:39.223Z,0.00
2022-10-06T01:39:39.212Z,0.00
2022-10-06T01:40:39.213Z,0.00
2022-10-06T01:41:39.220Z,0.00
2022-10-06T01:42:39.194Z,0.00
2022-10-06T01:43:39.207Z,0.00
2022-10-06T01:44:39.179Z,0.00
2022-10-06T01:45:39.165Z,0.00
2022-10-06T01:46:39.238Z,0.00
2022-10-06T01:47:39.179Z,0.00
2022-10-06T01:48:39.138Z,0.00
2022-10-06T01:49:39.134Z,0.00
2022-10-06T01:50:39.122Z,0.00
2022-10-06T01:51:39.118Z,0.00
2022-10-06T01:53:46.128Z,0.00
2022-10-06T01:54:39.110Z,0.00
2022-10-06T01:55:39.095Z,0.00
2022-10-06T01:56:39.085Z,0.00
2022-10-06T01:57:39.075Z,0.00
2022-10-06T01:58:39.057Z,0.00
2022-10-06T01:59:39.065Z,0.00
2022-10-06T02:00:39.041Z,0.00
2022-10-06T02:01:39.122Z,0.00
2022-10-06T02:02:39.021Z,0.00
2022-10-06T02:03:39.014Z,0.00
2022-10-06T02:04:39.021Z,0.00
2022-10-06T02:05:38.988Z,0.00
2022-10-06T02:06:39.012Z,0.00
2022-10-06T02:07:38.980Z,0.00
2022-10-06T02:08:38.977Z,0.00
2022-10-06T02:09:38.988Z,0.00
2022-10-06T02:10:38.962Z,0.00
2022-10-06T02:11:38.945Z,0.00
2022-10-06T02:12:38.934Z,0.00
2022-10-06T02:13:38.931Z,0.00
2022-10-06T02:14:38.925Z,0.00
2022-10-06T02:15:39.004Z,0.00
2022-10-06T02:16:38.900Z,0.00
2022-10-06T02:17:38.896Z,0.00
2022-10-06T02:18:38.881Z,0.00
2022-10-06T02:19:38.879Z,0.00
2022-10-06T02:20:38.868Z,0.00
2022-10-06T02:21:38.886Z,0.00
2022-10-06T02:22:38.861Z,0.00
2022-10-06T02:23:38.851Z,0.00
2022-10-06T02:24:38.846Z,0.00
2022-10-06T02:25:38.829Z,0.00
2022-10-06T02:26:38.819Z,0.00
2022-10-06T02:27:38.821Z,0.00
2022-10-06T02:28:38.844Z,0.00
2022-10-06T02:29:38.803Z,0.00
2022-10-06T02:30:38.784Z,0.00
2022-10-06T02:31:38.856Z,0.00
2022-10-06T02:32:38.778Z,0.00
2022-10-06T02:33:38.765Z,0.00
2022-10-06T02:34:38.759Z,0.00
2022-10-06T02:35:38.740Z,0.00
2022-10-06T02:36:38.740Z,0.00
2022-10-06T02:37:38.752Z,0.00
2022-10-06T02:38:38.724Z,0.00
2022-10-06T02:39:38.723Z,0.00
2022-10-06T02:40:38.717Z,0.00
2022-10-06T02:41:38.703Z,0.00
2022-10-06T02:42:38.689Z,0.00
2022-10-06T02:43:38.709Z,0.00
2022-10-06T02:44:38.700Z,0.00
2022-10-06T02:45:38.664Z,0.00
2022-10-06T02:46:38.711Z,0.00
2022-10-06T02:47:38.657Z,0.00
2022-10-06T02:48:38.645Z,0.00
2022-10-06T02:49:38.658Z,0.00
2022-10-06T02:50:38.630Z,0.00
2022-10-06T02:51:38.624Z,0.00
2022-10-06T02:52:38.635Z,0.00
2022-10-06T02:53:38.598Z,0.00
2022-10-06T02:54:38.598Z,0.00
2022-10-06T02:55:38.592Z,0.00
2022-10-06T02:56:38.579Z,0.00
2022-10-06T02:57:38.569Z,0.00
2022-10-06T02:58:38.579Z,0.00
2022-10-06T02:59:38.546Z,0.00
2022-10-06T03:00:38.534Z,0.00
2022-10-06T03:01:38.668Z,0.00
2022-10-06T03:02:38.619Z,0.00
2022-10-06T03:03:38.508Z,0.00
2022-10-06T03:04:38.501Z,0.00
2022-10-06T03:05:38.511Z,0.00
2022-10-06T03:06:38.504Z,0.00
2022-10-06T03:07:38.477Z,0.00
2022-10-06T03:08:38.475Z,0.00
2022-10-06T03:09:38.463Z,0.00
2022-10-06T03:10:38.460Z,0.00
2022-10-06T03:11:38.475Z,0.00
2022-10-06T03:12:38.440Z,0.00
2022-10-06T03:13:38.437Z,0.00
2022-10-06T03:14:38.429Z,0.00
2022-10-06T03:15:38.419Z,0.00
2022-10-06T03:16:38.414Z,0.00
2022-10-06T03:17:38.420Z,0.00
2022-10-06T03:18:38.401Z,0.00
2022-10-06T03:19:38.383Z,0.00
2022-10-06T03:20:38.373Z,0.00
2022-10-06T03:21:38.375Z,0.00
2022-10-06T03:22:38.373Z,0.00
2022-10-06T03:23:38.367Z,0.00
2022-10-06T03:24:38.337Z,0.00
2022-10-06T03:25:38.334Z,0.00
2022-10-06T03:26:38.315Z,0.00
2022-10-06T03:27:38.330Z,0.00
2022-10-06T03:28:38.356Z,0.00
2022-10-06T03:29:38.297Z,0.00
2022-10-06T03:30:38.311Z,0.00
2022-10-06T03:31:38.343Z,0.00
2022-10-06T03:32:38.272Z,0.00
2022-10-06T03:33:38.269Z,0.00
2022-10-06T03:34:38.285Z,0.00
2022-10-06T03:35:38.268Z,0.00
2022-10-06T03:36:38.251Z,0.00
2022-10-06T03:37:38.229Z,0.00
2022-10-06T03:38:38.225Z,0.00
2022-10-06T03:39:38.226Z,0.00
2022-10-06T03:40:38.208Z,0.00
2022-10-06T03:41:38.216Z,0.00
2022-10-06T03:42:38.193Z,0.00
2022-10-06T03:43:38.172Z,0.00
2022-10-06T03:44:38.189Z,0.00
2022-10-06T03:45:38.199Z,0.00
2022-10-06T03:46:38.245Z,0.00
2022-10-06T03:47:38.140Z,0.00
2022-10-06T03:48:38.129Z,0.00
2022-10-06T03:49:38.123Z,0.00
2022-10-06T03:50:38.138Z,0.00
2022-10-06T03:51:38.111Z,0.00
2022-10-06T03:52:38.123Z,0.00
2022-10-06T03:53:38.085Z,0.00
2022-10-06T03:54:38.085Z,0.00
2022-10-06T03:55:38.074Z,0.00
2022-10-06T03:56:38.064Z,0.00
2022-10-06T03:57:38.053Z,0.00
2022-10-06T03:58:38.082Z,0.00
2022-10-06T03:59:38.042Z,0.00
2022-10-06T04:00:38.071Z,0.00
2022-10-06T04:01:38.108Z,0.00
2022-10-06T04:02:38.014Z,0.00
2022-10-06T04:03:38.021Z,0.00
2022-10-06T04:04:38.023Z,0.00
2022-10-06T04:05:37.990Z,0.00
2022-10-06T04:06:37.987Z,0.00
2022-10-06T04:07:37.998Z,0.00
2022-10-06T04:08:37.998Z,0.00
2022-10-06T04:09:37.965Z,0.00
2022-10-06T04:10:37.949Z,0.00
2022-10-06T04:11:37.948Z,0.00
2022-10-06T04:12:37.938Z,0.00
2022-10-06T04:13:37.931Z,0.00
2022-10-06T04:14:37.937Z,0.00
2022-10-06T04:15:37.904Z,0.00
2022-10-06T04:16:37.963Z,0.00
2022-10-06T04:17:37.896Z,0.00
2022-10-06T04:18:37.890Z,0.00
2022-10-06T04:19:37.884Z,0.00
2022-10-06T04:20:37.865Z,0.00
2022-10-06T04:21:37.859Z,0.00
2022-10-06T04:22:37.865Z,0.00
2022-10-06T04:23:37.837Z,0.00
2022-10-06T04:24:37.833Z,0.00
2022-10-06T04:25:37.817Z,0.00
2022-10-06T04:26:37.816Z,0.00
2022-10-06T04:27:37.835Z,0.00
2022-10-06T04:28:37.833Z,0.00
2022-10-06T04:29:37.793Z,0.00
2022-10-06T04:30:37.866Z,0.00
2022-10-06T04:31:37.835Z,0.00
2022-10-06T04:32:37.768Z,0.00
2022-10-06T04:33:37.774Z,0.00
2022-10-06T04:34:37.750Z,0.00
2022-10-06T04:35:37.732Z,0.00
2022-10-06T04:36:37.735Z,0.00
2022-10-06T04:37:37.737Z,0.00
2022-10-06T04:38:37.712Z,0.00
2022-10-06T04:39:37.719Z,0.00
2022-10-06T04:40:37.685Z,0.00
2022-10-06T04:41:37.684Z,0.00
2022-10-06T04:42:37.673Z,0.00
2022-10-06T04:43:37.672Z,0.00
2022-10-06T04:44:37.676Z,0.00
2022-10-06T04:45:37.675Z,0.00
2022-10-06T04:46:43.104Z,0.00
2022-10-06T04:47:38.643Z,0.00
2022-10-06T04:48:37.651Z,0.00
2022-10-06T04:49:37.622Z,0.00
2022-10-06T04:50:37.608Z,0.00
2022-10-06T04:51:37.603Z,0.00
2022-10-06T04:52:37.607Z,0.00
2022-10-06T04:53:37.585Z,0.00
2022-10-06T04:54:37.591Z,0.00
2022-10-06T04:55:37.573Z,0.00
2022-10-06T04:56:37.557Z,0.00
2022-10-06T04:57:37.545Z,0.00
2022-10-06T04:58:37.556Z,0.00
2022-10-06T04:59:37.531Z,0.00
2022-10-06T05:00:37.593Z,0.00
2022-10-06T05:01:37.525Z,0.00
2022-10-06T05:02:37.508Z,0.00
2022-10-06T05:03:37.491Z,0.00
2022-10-06T05:04:37.513Z,0.00
2022-10-06T05:05:37.481Z,0.00
2022-10-06T05:06:37.480Z,0.00
2022-10-06T05:07:37.476Z,0.00
2022-10-06T05:08:37.468Z,0.00
2022-10-06T05:09:37.444Z,0.00
2022-10-06T05:10:37.440Z,0.00
2022-10-06T05:11:37.443Z,0.00
2022-10-06T05:12:37.424Z,0.00
2022-10-06T05:13:37.423Z,0.00
2022-10-06T05:14:37.399Z,0.00
2022-10-06T05:15:37.392Z,0.00
2022-10-06T05:16:37.455Z,0.00
2022-10-06T05:17:37.406Z,0.00
2022-10-06T05:18:37.376Z,0.00
2022-10-06T05:19:37.389Z,0.00
2022-10-06T05:20:37.351Z,0.00
2022-10-06T05:21:37.350Z,0.00
2022-10-06T05:22:37.337Z,0.00
2022-10-06T05:23:37.333Z,0.00
2022-10-06T05:24:37.340Z,0.00
2022-10-06T05:25:37.300Z,0.00
2022-10-06T05:26:37.313Z,0.00
2022-10-06T05:27:37.298Z,0.00
2022-10-06T05:28:37.338Z,0.00
2022-10-06T05:29:37.280Z,5.62
2022-10-06T05:30:37.296Z,5.62
2022-10-06T05:31:37.288Z,5.62
2022-10-06T05:32:37.253Z,5.62
2022-10-06T05:33:37.241Z,5.62
2022-10-06T05:34:37.227Z,5.62
2022-10-06T05:35:37.244Z,5.62
2022-10-06T05:36:37.224Z,5.62
2022-10-06T05:37:37.225Z,5.62
2022-10-06T05:38:37.210Z,5.62
2022-10-06T05:39:37.189Z,11.25
2022-10-06T05:40:37.192Z,11.25
2022-10-06T05:41:37.194Z,11.25
2022-10-06T05:42:37.170Z,11.25
2022-10-06T05:43:37.168Z,11.25
2022-10-06T05:44:37.175Z,11.25
2022-10-06T05:45:37.200Z,16.88
2022-10-06T05:46:37.153Z,16.88
2022-10-06T05:47:37.178Z,16.88
2022-10-06T05:48:37.124Z,16.88
2022-10-06T05:49:37.117Z,16.88
2022-10-06T05:50:37.121Z,22.50
2022-10-06T05:51:37.096Z,22.50
2022-10-06T05:52:37.091Z,22.50
2022-10-06T05:53:37.098Z,22.50
2022-10-06T05:54:37.070Z,28.12
2022-10-06T05:55:37.054Z,28.12
2022-10-06T05:56:37.075Z,28.12
2022-10-06T05:57:37.038Z,28.12
2022-10-06T05:58:37.040Z,33.75
2022-10-06T05:59:37.062Z,33.75
2022-10-06T06:00:37.024Z,33.75
2022-10-06T06:01:37.120Z,33.75
2022-10-06T06:02:37.108Z,39.38
2022-10-06T06:03:36.983Z,39.38
2022-10-06T06:04:36.985Z,39.38
2022-10-06T06:05:36.995Z,45.00
2022-10-06T06:06:36.964Z,45.00
2022-10-06T06:07:36.961Z,45.00
2022-10-06T06:08:36.948Z,50.62
2022-10-06T06:09:37.055Z,50.62
2022-10-06T06:10:36.929Z,50.62
2022-10-06T06:11:36.932Z,50.62
2022-10-06T06:12:36.907Z,56.25
2022-10-06T06:13:36.903Z,56.25
2022-10-06T06:14:36.931Z,56.25
2022-10-06T06:15:36.875Z,56.25
2022-10-06T06:16:36.930Z,56.25
2022-10-06T06:17:36.867Z,90.00
2022-10-06T06:18:36.869Z,112.50
2022-10-06T06:19:36.855Z,106.88
2022-10-06T06:20:36.855Z,95.62
2022-10-06T06:21:36.844Z,101.25
2022-10-06T06:22:36.819Z,112.50
2022-10-06T06:23:36.807Z,157.50
2022-10-06T06:24:36.797Z,270.00
2022-10-06T06:25:36.859Z,258.75
2022-10-06T06:26:36.786Z,292.50
2022-10-06T06:27:36.767Z,309.38
2022-10-06T06:28:36.807Z,73.12
2022-10-06T06:29:36.752Z,146.25
2022-10-06T06:30:36.758Z,90.00
2022-10-06T06:31:36.790Z,185.62
2022-10-06T06:32:36.754Z,500.62
2022-10-06T06:33:36.722Z,601.88
2022-10-06T06:34:36.737Z,590.62
2022-10-06T06:35:36.705Z,568.12
2022-10-06T06:36:36.725Z,596.25
2022-10-06T06:37:36.687Z,618.75
2022-10-06T06:38:36.683Z,613.12
2022-10-06T06:39:36.674Z,590.62
2022-10-06T06:40:36.678Z,568.12
2022-10-06T06:41:36.654Z,489.38
2022-10-06T06:42:36.666Z,101.25
2022-10-06T06:43:36.640Z,90.00
2022-10-06T06:44:36.637Z,84.38
2022-10-06T06:45:36.620Z,78.75
2022-10-06T06:46:36.675Z,84.38
2022-10-06T06:47:36.613Z,95.62
2022-10-06T06:48:36.617Z,585.00
2022-10-06T06:49:36.613Z,630.00
2022-10-06T06:50:36.586Z,624.38
2022-10-06T06:51:36.581Z,646.88
2022-10-06T06:52:36.574Z,618.75
2022-10-06T06:53:36.568Z,680.62
2022-10-06T06:54:36.574Z,691.88
2022-10-06T06:55:36.569Z,691.88
2022-10-06T06:56:36.547Z,703.12
2022-10-06T06:57:36.555Z,703.12
2022-10-06T06:58:36.523Z,680.62
2022-10-06T06:59:36.536Z,669.38
2022-10-06T07:00:36.552Z,669.38
2022-10-06T07:01:36.656Z,675.00
2022-10-06T07:02:36.495Z,174.38
2022-10-06T07:03:56.765Z,748.12
2022-10-06T07:04:37.518Z,596.25
2022-10-06T07:05:36.467Z,146.25
2022-10-06T07:06:36.470Z,708.75
2022-10-06T07:07:36.459Z,545.62
2022-10-06T07:08:36.450Z,146.25
2022-10-06T07:09:36.464Z,163.12
2022-10-06T07:10:36.458Z,129.38
2022-10-06T07:11:36.434Z,371.25
2022-10-06T07:12:36.427Z,157.50
2022-10-06T07:13:36.409Z,697.50
2022-10-06T07:14:36.441Z,708.75
2022-10-06T07:15:36.443Z,691.88
2022-10-06T07:16:36.418Z,680.62
2022-10-06T07:17:36.390Z,703.12
2022-10-06T07:18:36.380Z,720.00
2022-10-06T07:19:36.372Z,708.75
2022-10-06T07:20:36.364Z,697.50
2022-10-06T07:21:36.356Z,686.25
2022-10-06T07:22:36.367Z,714.38
2022-10-06T07:23:36.380Z,748.12
2022-10-06T07:24:36.335Z,793.12
2022-10-06T07:25:36.328Z,787.50
2022-10-06T07:26:36.328Z,742.50
2022-10-06T07:27:36.325Z,691.88
2022-10-06T07:28:36.399Z,691.88
2022-10-06T07:29:36.299Z,669.38
2022-10-06T07:30:40.551Z,652.50
2022-10-06T07:31:36.355Z,736.88
2022-10-06T07:32:36.295Z,720.00
2022-10-06T07:33:36.274Z,781.88
2022-10-06T07:34:36.304Z,798.75
2022-10-06T07:35:36.270Z,810.00
2022-10-06T07:36:36.254Z,765.00
2022-10-06T07:37:36.252Z,399.38
2022-10-06T07:38:36.263Z,680.62
2022-10-06T07:39:36.233Z,573.75
2022-10-06T07:40:36.243Z,753.75
2022-10-06T07:41:36.220Z,742.50
2022-10-06T07:42:36.215Z,669.38
2022-10-06T07:43:36.220Z,483.75
2022-10-06T07:44:36.197Z,798.75
2022-10-06T07:45:36.308Z,787.50
2022-10-06T07:46:36.185Z,826.88
2022-10-06T07:47:36.183Z,225.00
2022-10-06T07:48:36.162Z,821.25
2022-10-06T07:49:36.175Z,826.88
2022-10-06T07:50:36.163Z,753.75
2022-10-06T07:51:36.173Z,793.12
2022-10-06T07:52:36.139Z,821.25
2022-10-06T07:53:36.128Z,517.50
2022-10-06T07:54:36.121Z,253.12
2022-10-06T07:55:36.131Z,163.12
2022-10-06T07:56:36.120Z,264.38
2022-10-06T07:57:36.106Z,185.62
2022-10-06T07:58:36.107Z,196.88
2022-10-06T07:59:36.088Z,168.75
2022-10-06T08:00:36.124Z,151.88
2022-10-06T08:01:36.125Z,230.62
2022-10-06T08:02:36.398Z,168.75
2022-10-06T08:03:36.069Z,135.00
2022-10-06T08:04:36.057Z,360.00
2022-10-06T08:05:36.050Z,793.12
2022-10-06T08:06:36.067Z,157.50
2022-10-06T08:07:36.038Z,118.12
2022-10-06T08:08:36.028Z,168.75
2022-10-06T08:09:36.011Z,129.38
2022-10-06T08:10:36.014Z,123.75
2022-10-06T08:11:35.996Z,151.88
2022-10-06T08:12:36.091Z,174.38
2022-10-06T08:13:35.983Z,230.62
2022-10-06T08:14:35.982Z,635.62
2022-10-06T08:15:35.982Z,140.62
2022-10-06T08:16:36.022Z,168.75
2022-10-06T08:17:35.953Z,140.62
2022-10-06T08:18:51.277Z,146.25
2022-10-06T08:19:36.937Z,112.50
2022-10-06T08:20:35.957Z,151.88
2022-10-06T08:21:35.974Z,866.25
2022-10-06T08:22:35.912Z,174.38
2022-10-06T08:23:42.932Z,146.25
2022-10-06T08:25:01.043Z,151.88
2022-10-06T08:25:36.898Z,1395.00
2022-10-06T08:26:35.898Z,1237.50
2022-10-06T08:27:35.903Z,174.38
2022-10-06T08:28:35.938Z,157.50
2022-10-06T08:29:35.861Z,146.25
2022-10-06T08:30:35.859Z,135.00
2022-10-06T08:31:35.876Z,151.88
2022-10-06T08:32:35.835Z,1828.12
2022-10-06T08:33:35.857Z,1766.25
2022-10-06T08:34:35.828Z,1040.62
2022-10-06T08:35:35.820Z,241.88
2022-10-06T08:36:35.820Z,151.88
2022-10-06T08:37:35.808Z,618.75
2022-10-06T08:38:35.841Z,2109.38
2022-10-06T08:39:35.790Z,1760.62
2022-10-06T08:40:35.806Z,1372.50
2022-10-06T08:41:35.783Z,2070.00
2022-10-06T08:42:35.778Z,1873.12
2022-10-06T08:43:35.759Z,1878.75
2022-10-06T08:44:35.756Z,2188.12
2022-10-06T08:45:38.731Z,1344.38
2022-10-06T08:46:35.754Z,191.25
2022-10-06T08:47:35.761Z,146.25
2022-10-06T08:48:35.763Z,140.62
2022-10-06T08:49:35.742Z,168.75
2022-10-06T08:50:35.711Z,2120.62
2022-10-06T08:51:35.732Z,1968.75
2022-10-06T08:52:35.735Z,2019.38
2022-10-06T08:53:35.691Z,1951.88
2022-10-06T08:54:35.688Z,1743.75
2022-10-06T08:55:35.670Z,1642.50
2022-10-06T08:56:35.669Z,1046.25
2022-10-06T08:57:35.663Z,1687.50
2022-10-06T08:58:35.681Z,1383.75
2022-10-06T08:59:35.669Z,1355.62
2022-10-06T09:00:35.644Z,1395.00
2022-10-06T09:01:35.675Z,545.62
2022-10-06T09:02:35.697Z,196.88
2022-10-06T09:03:35.623Z,669.38
2022-10-06T09:04:35.649Z,1153.12
2022-10-06T09:05:35.624Z,225.00
2022-10-06T09:06:35.645Z,1513.12
2022-10-06T09:07:35.610Z,1468.12
2022-10-06T09:08:35.585Z,1355.62
2022-10-06T09:09:35.593Z,551.25
2022-10-06T09:10:35.605Z,973.12
2022-10-06T09:11:35.583Z,236.25
2022-10-06T09:12:35.558Z,1395.00
2022-10-06T09:13:35.568Z,1108.12
2022-10-06T09:14:35.564Z,196.88
2022-10-06T09:15:35.538Z,241.88
2022-10-06T09:16:35.589Z,151.88
2022-10-06T09:17:35.527Z,129.38
2022-10-06T09:19:07.612Z,123.75
2022-10-06T09:19:36.520Z,123.75
2022-10-06T09:20:35.512Z,123.75
2022-10-06T09:21:35.534Z,123.75
2022-10-06T09:22:35.488Z,135.00
2022-10-06T09:23:35.478Z,123.75
2022-10-06T09:24:35.473Z,123.75
2022-10-06T09:25:35.475Z,135.00
2022-10-06T09:26:36.168Z,281.25
2022-10-06T09:27:35.464Z,264.38
2022-10-06T09:28:35.483Z,264.38
2022-10-06T09:29:35.440Z,264.38
2022-10-06T09:30:35.443Z,264.38
2022-10-06T09:31:35.449Z,258.75
2022-10-06T09:32:35.416Z,258.75
2022-10-06T09:33:35.425Z,258.75
2022-10-06T09:34:35.408Z,253.12
2022-10-06T09:35:35.401Z,219.38
2022-10-06T09:36:35.390Z,236.25
2022-10-06T09:37:35.377Z,247.50
2022-10-06T09:38:35.392Z,208.12
2022-10-06T09:39:35.375Z,241.88
2022-10-06T09:40:35.391Z,202.50
2022-10-06T09:41:35.352Z,241.88
2022-10-06T09:42:35.345Z,241.88
2022-10-06T09:43:35.326Z,208.12
2022-10-06T09:44:35.382Z,230.62
2022-10-06T09:45:35.312Z,236.25
2022-10-06T09:46:35.318Z,236.25
2022-10-06T09:47:35.291Z,225.00
2022-10-06T09:48:35.289Z,219.38
2022-10-06T09:49:35.286Z,225.00
2022-10-06T09:50:35.303Z,213.75
2022-10-06T09:51:35.273Z,230.62
2022-10-06T09:52:35.259Z,146.25
2022-10-06T09:53:37.646Z,129.38
2022-10-06T09:54:35.245Z,123.75
2022-10-06T09:55:35.249Z,112.50
2022-10-06T09:56:35.232Z,112.50
2022-10-06T09:57:35.213Z,123.75
2022-10-06T09:58:35.202Z,225.00
2022-10-06T09:59:39.985Z,174.38
2022-10-06T10:00:35.310Z,225.00
2022-10-06T10:01:35.218Z,236.25
2022-10-06T10:02:35.245Z,241.88
2022-10-06T10:03:35.169Z,230.62
2022-10-06T10:04:35.168Z,219.38
2022-10-06T10:05:35.151Z,219.38
2022-10-06T10:06:35.157Z,225.00
2022-10-06T10:07:35.161Z,174.38
2022-10-06T10:09:35.139Z,129.38
2022-10-06T10:10:35.130Z,213.75
2022-10-06T10:11:35.129Z,202.50
2022-10-06T10:12:35.105Z,191.25
2022-10-06T10:13:35.101Z,196.88
2022-10-06T10:14:35.118Z,180.00
2022-10-06T10:15:35.088Z,196.88
2022-10-06T10:16:35.185Z,208.12
2022-10-06T10:17:35.099Z,191.25
2022-10-06T10:18:35.057Z,208.12
2022-10-06T10:19:35.049Z,208.12
2022-10-06T10:20:35.052Z,202.50
2022-10-06T10:21:35.046Z,185.62
2022-10-06T10:22:35.060Z,123.75
2022-10-06T10:23:35.045Z,185.62
2022-10-06T10:24:35.022Z,196.88
2022-10-06T10:25:35.001Z,202.50
2022-10-06T10:26:35.010Z,129.38
2022-10-06T10:27:35.001Z,213.75
2022-10-06T10:28:35.096Z,191.25
2022-10-06T10:29:34.977Z,157.50
2022-10-06T10:30:34.972Z,163.12
2022-10-06T10:31:34.985Z,157.50
2022-10-06T10:32:34.954Z,123.75
2022-10-06T10:33:34.977Z,129.38
2022-10-06T10:34:34.945Z,174.38
2022-10-06T10:35:34.931Z,135.00
2022-10-06T10:36:34.937Z,123.75
2022-10-06T10:37:34.918Z,123.75
2022-10-06T10:38:34.923Z,168.75
2022-10-06T10:39:34.926Z,230.62
2022-10-06T10:40:34.902Z,129.38
2022-10-06T10:41:34.888Z,123.75
2022-10-06T10:42:34.888Z,129.38
2022-10-06T10:43:34.878Z,135.00
2022-10-06T10:44:34.897Z,129.38
2022-10-06T10:45:34.879Z,168.75
2022-10-06T10:46:34.943Z,230.62
2022-10-06T10:47:34.878Z,219.38
2022-10-06T10:48:34.848Z,213.75
2022-10-06T10:49:34.832Z,219.38
2022-10-06T10:50:34.874Z,208.12
2022-10-06T10:51:34.817Z,123.75
2022-10-06T10:52:34.814Z,191.25
2022-10-06T10:53:36.579Z,196.88
2022-10-06T10:54:34.824Z,202.50
2022-10-06T10:55:34.796Z,191.25
2022-10-06T10:56:34.817Z,151.88
2022-10-06T10:57:34.777Z,112.50
2022-10-06T10:58:34.793Z,112.50
2022-10-06T10:59:34.762Z,180.00
2022-10-06T11:00:34.816Z,202.50
2022-10-06T11:01:34.819Z,213.75
2022-10-06T11:02:34.768Z,225.00
2022-10-06T11:03:34.775Z,219.38
2022-10-06T11:04:34.735Z,225.00
2022-10-06T11:05:34.720Z,225.00
2022-10-06T11:06:34.723Z,225.00
2022-10-06T11:07:34.729Z,219.38
2022-10-06T11:08:34.700Z,219.38
2022-10-06T11:09:34.700Z,208.12
2022-10-06T11:10:34.688Z,196.88
2022-10-06T11:11:34.688Z,196.88
2022-10-06T11:12:34.700Z,196.88
2022-10-06T11:13:34.678Z,202.50
2022-10-06T11:14:34.704Z,208.12
2022-10-06T11:15:34.652Z,208.12
2022-10-06T11:16:34.704Z,191.25
2022-10-06T11:17:34.634Z,196.88
2022-10-06T11:18:34.643Z,196.88
2022-10-06T11:19:34.630Z,196.88
2022-10-06T11:20:34.611Z,191.25
2022-10-06T11:21:34.630Z,196.88
2022-10-06T11:22:34.602Z,196.88
2022-10-06T11:23:34.595Z,185.62
2022-10-06T11:24:34.591Z,180.00
2022-10-06T11:25:35.243Z,185.62
2022-10-06T11:26:34.572Z,185.62
2022-10-06T11:27:34.592Z,168.75
2022-10-06T11:28:34.623Z,174.38
2022-10-06T11:29:34.552Z,174.38
2022-10-06T11:30:34.549Z,174.38
2022-10-06T11:31:34.602Z,174.38
2022-10-06T11:32:34.522Z,191.25
2022-10-06T11:33:34.525Z,185.62
2022-10-06T11:34:34.505Z,185.62
2022-10-06T11:35:34.512Z,185.62
2022-10-06T11:36:34.502Z,185.62
2022-10-06T11:37:34.490Z,185.62
2022-10-06T11:38:34.489Z,174.38
2022-10-06T11:39:34.490Z,180.00
2022-10-06T11:40:34.467Z,185.62
2022-10-06T11:41:34.463Z,185.62
2022-10-06T11:42:34.457Z,180.00
2022-10-06T11:43:34.452Z,180.00
2022-10-06T11:44:34.456Z,174.38
2022-10-06T11:45:34.528Z,180.00
2022-10-06T11:46:35.746Z,174.38
2022-10-06T11:47:35.596Z,106.88
2022-10-06T11:48:34.411Z,168.75
2022-10-06T11:49:34.405Z,168.75
2022-10-06T11:50:34.421Z,168.75
2022-10-06T11:51:34.377Z,168.75
2022-10-06T11:52:34.401Z,163.12
2022-10-06T11:53:34.368Z,163.12
2022-10-06T11:54:34.364Z,163.12
2022-10-06T11:55:34.352Z,157.50
2022-10-06T11:56:34.352Z,168.75
2022-10-06T11:57:34.365Z,151.88
2022-10-06T11:58:42.595Z,157.50
2022-10-06T11:59:35.336Z,157.50
2022-10-06T12:00:34.328Z,157.50
2022-10-06T12:01:34.328Z,157.50
2022-10-06T12:02:34.419Z,151.88
2022-10-06T12:03:34.300Z,157.50
2022-10-06T12:04:34.307Z,151.88
2022-10-06T12:05:56.252Z,151.88
2022-10-06T12:06:35.284Z,146.25
2022-10-06T12:07:34.264Z,151.88
2022-10-06T12:08:34.272Z,151.88
2022-10-06T12:09:34.272Z,157.50
2022-10-06T12:10:34.279Z,151.88
2022-10-06T12:11:34.237Z,157.50
2022-10-06T12:12:34.234Z,151.88
2022-10-06T12:17:35.193Z,140.62
2022-10-06T12:18:34.189Z,135.00
2022-10-06T12:19:34.188Z,146.25
2022-10-06T12:20:34.189Z,140.62
2022-10-06T12:21:34.166Z,140.62
2022-10-06T12:22:34.154Z,140.62
2022-10-06T12:23:34.158Z,140.62
2022-10-06T12:24:34.160Z,140.62
2022-10-06T12:25:34.140Z,140.62
2022-10-06T12:26:34.172Z,112.50
2022-10-06T12:27:34.128Z,135.00
2022-10-06T12:28:34.182Z,135.00
2022-10-06T12:29:34.121Z,123.75
2022-10-06T12:30:34.165Z,129.38
2022-10-06T12:31:34.095Z,135.00
2022-10-06T12:32:34.126Z,129.38
2022-10-06T12:33:34.075Z,129.38
2022-10-06T12:34:34.077Z,129.38
2022-10-06T12:35:34.095Z,129.38
2022-10-06T12:36:34.058Z,123.75
2022-10-06T12:37:34.077Z,129.38
2022-10-06T12:38:34.052Z,123.75
2022-10-06T12:39:34.024Z,123.75
2022-10-06T12:40:34.050Z,123.75
2022-10-06T12:41:34.038Z,123.75
2022-10-06T12:42:34.013Z,123.75
2022-10-06T12:43:34.026Z,123.75
2022-10-06T12:44:33.994Z,123.75
2022-10-06T12:45:33.985Z,123.75
2022-10-06T12:46:34.062Z,123.75
2022-10-06T12:47:33.977Z,118.12
2022-10-06T12:48:33.987Z,118.12
2022-10-06T12:49:33.960Z,118.12
2022-10-06T12:50:33.948Z,118.12
2022-10-06T12:52:33.938Z,118.12
2022-10-06T12:53:33.952Z,106.88
2022-10-06T12:54:33.928Z,118.12
2022-10-06T12:55:33.910Z,118.12
2022-10-06T12:56:33.915Z,118.12
2022-10-06T12:57:33.898Z,118.12